Hovedside
METAR-TAF:

METAR-TAF

Lufthavner :

Norne Fpso, Norge

Oljeplattform

breddegrad: 66-01-48N, lengdegrad: 008-04-48E, høyde over havet: 10 m

Gjeldene værobservasjon

Denne rapporten ble laget for 21 minutter siden, klokken 22:20 UTC
Vind 17 kt fra Nord-nordøst
Temperatur 14°C
Luftfuktighet 82%
Trykk 1018 hPa
Sikt 10 km eller mer

METAR: ENNE 242220Z AUTO 03017KT 9999NDV NCD 14/11 Q1018 W///S3

Tid: 00:41 (22:41 UTC)

Varsel

Denne rapporten ble laget for 11 timer og 41 minutter siden, klokken 11:00 UTC
Varsel gyldig fra 24. klokken 12 UTC til 24. klokken 17 UTC
Vind 15 kt fra Øst
Sikt 10 km eller mer
ingen skyer under 1500 m og ingen bygeskyer

TAF: ENNE 241100Z 2412/2417 08015KT CAVOK

Værobservasjoner og værvarsel for over 4000 flyplasser (METAR- og TAF-rapporter).

Tilgjengelige stasjoner er representert av de røde og gule prikkene på kartet.

Hold musepekeren over prikken for å se navnet på stasjonen.

Klikk så for å se værobservasjoner og -varsler.

For å forandre kartet kan du klikke på den grønne knappen med svart kryss for å zoome inn, på den grønne knappen med strek for å zoome ut, eller på de grønne pilene for å se tilstøtende kart.


METAR-TAF: